Airfield :
LOGIN :

Register | Disclaimer

   EN    FR    IT 

 










Legend :    VFR   Marginal VFR   IFR   Intensive IFR   Very Intensive IFR
Visi :
Ceiling :
>= 8 km
>= 3000ft
5 to 8 km
1000 to 3000 ft
1500m to 5 km
500 to 1000 ft
800 to 1500m
200 to 500 ft
< 800m
< 200 ft
Symbols :   Thunderstorms  Fog  Heavy snow  Heavy precipitations  Wind > 20 kt
SIGMETs :     Misc.  Thunderstorms  Icing  Turbulence  Mountain Waves  Volcanic Ashes






- Airport Elevation : 124 ft
- IATA code : RNS


LFRN - Rennes

CURRENT METAR :
  • 212200Z AUTO 01007KT CAVOK 02/M01 Q1038 NOSIG

EXPIRED METARs :
  • 212130Z AUTO 02006KT CAVOK 01/M01 Q1038 NOSIG
  • 212100Z AUTO 35005KT CAVOK 01/M01 Q1038 NOSIG
  • 212030Z AUTO 02005KT CAVOK 02/M01 Q1038 NOSIG
  • 212000Z AUTO 05005KT CAVOK 02/M01 Q1038 NOSIG
  • 211930Z AUTO 05007KT CAVOK 02/M01 Q1038 NOSIG

TAF TAF LFRN
Valid from the 21 at 18:00 until the 22 at 18:00 UTC


211700Z 2118/2218 03006KT CAVOK
ATIS : +33 2 99 67 72 50



MET'MAP, your aeronautical weather chart ! - Copyright ORBIFLY December 2007 - Disclaimer

ORBIFLY MET'MAP TEAM :

Programming & Development : Alexandra Zaïnal
Concept & original design : Baudouin d'Aumeries
Assistance for programming : Marc-Olivier Méhu
Technical & hardware support : Manuel Goepfert

Contact : metmap@orbifly.com




SOURCES & CREDITS :

   NOAA